San José, CA

20:43 PDT le 22 octobre 2014 (GMT -0700)
Moffett Federal Air Field | Change Station
CLOSE
Current Station
Aéroport
Location: Moffett NAS,
Altitude: 39 ft
Stations météo à proximité

Alt. 39 ft 37.41 °N, 122.05 °W | Updated 47 minutes ago

Clear
Ciel dégagé
65 ° F
Paraît 65 ° F
N
9
Vent Variable Vent de Nord

Aujourd'hui
Haut(e) -- | Bas -- ° F
--% Risque de précip.
Hier
Haut(e) -- | Bas -- ° F
Precip. -- pouce
7:22 AM 6:21 PM
Lune descendante, 1% visible
Pression 30.05 pouce
Visibilité 10.0 Miles terrestres
Nuages Ciel dégagé
Point de rosée 60 ° F
Humidité 84%
Précipitations 0.00 pouce
Profondeur de la couche neigeuse Non disponible.
UV 0 sur 12
Pollen 2.40 sur 12
Ozone Bon
PM2.5 Bon
Flu Activity Sporadic
METAR KNUQ 230256Z 35008KT 10SM CLR 18/16 A3004 RMK AO2 SLP176 T01830156 51011

More Conditions Fewer Conditions

Pression 30.05 pouce
Visibilité 10.0 Miles terrestres
Nuages Ciel dégagé
Point de rosée 60 ° F
Humidité 84%
Précipitations 0.00 pouce
Profondeur de la couche neigeuse Non disponible.
UV 0 sur 12
Pollen 2.40 sur 12
Ozone Bon
PM2.5 Bon
Flu Activity Sporadic
METAR KNUQ 230256Z 35008KT 10SM CLR 18/16 A3004 RMK AO2 SLP176 T01830156 51011

More Conditions Fewer Conditions

10-Day Weather Forecast

Almanac

Astronomie

Oct. 22, 2014 Lever Coucher
Temps réel 07:22 PDT 18:21 PDT
Crépuscule civil 06:55 PDT 18:47 PDT
Crépuscule nautique 06:25 PDT 19:18 PDT
Crépuscule astronomique 05:55 PDT 19:48 PDT
Lune 06:10 PDT (10/22) 17:49 PDT (10/22)
Durée de lumière visible 11h 51m
Longueur du jour
10h 58m
Tomorrow will be 2m 14s shorter.
Lune descendante, 1% of the Moon is Illuminated
Aujourd'hui
Lune descendante
Oct 23
Nouveau
Oct 30
Premier quartier
Nov 6
Pleine lune
Nov 14
Dernier quartier

Extrêmes aujourd'hui

State Highs State Lows

Community

WunderPhotos

Upload Photos

1,764,130 Photos téléchargées !

Nearby

Qualité de l'air

  Qualité de l'air Indice de la qualité de l'air Polluant
Hier Bon
OZONE
Hier Bon
PM2.5
Actuel Bon
OZONE
Actuel Bon
PM2.5
mercredi Bon
PM2.5
jeudi Bon
PM2.5
vendredi Bon
PM2.5
samedi Bon
PM2.5
dimanche Bon
PM2.5
lundi Bon
PM2.5

Épaisseur de neige

Station Depth Altitude
Leavitt Lake 0 in 9400 ft
Echo Peak 1 in 7800 ft
Leavitt Meadows 1 in 7200 ft
Rubicon #2 0 in 7500 ft
Hagan's Meadow 0 in 8000 ft

Activité sismique

Ville Distance Mag. Time & Date
No recent earthquake activity has been reported nearby.
Minimum magnitude displayed is 2.5.

Températures des eaux côtières

Lieu Température
Aucun rapport de station

Stations météo à proximité